Time;durP1;ratioP1;P1;durP2;ratioP2;P2;SDS_P1;SDS_P2;PMS_P1;PMS_P2;Temp;Humidity;BMP_temperature;BMP_pressure;BME280_temperature;BME280_humidity;BME280_pressure;Samples;Min_cycle;Max_cycle;Signal;HPM_P1;HPM_P2
2022/04/09 00:02:13;;;;;;;6.05;3.53;;;;;;;;;;143727;573;47018;-64
2022/04/09 00:04:40;;;;;;;7.53;3.75;;;;;;;;;;143726;610;47012;-64
2022/04/09 00:07:07;;;;;;;10.82;3.47;;;;;;;;;;143727;583;46018;-63
2022/04/09 00:09:34;;;;;;;6.53;4.32;;;;;;;;;;143729;593;47012;-64
2022/04/09 00:12:02;;;;;;;6.90;3.40;;;;;;;;;;143728;609;47018;-64
2022/04/09 00:14:29;;;;;;;9.27;3.70;;;;;;;;;;143726;566;47012;-63
2022/04/09 00:16:56;;;;;;;5.62;3.12;;;;;;;;;;143726;610;46019;-64
2022/04/09 00:19:23;;;;;;;6.22;3.03;;;;;;;;;;143731;570;46022;-64
2022/04/09 00:21:50;;;;;;;7.72;2.87;;;;;;;;;;143724;587;47020;-64
2022/04/09 00:24:17;;;;;;;5.47;3.47;;;;;;;;;;143726;585;47012;-63
2022/04/09 00:26:44;;;;;;;8.07;3.72;;;;;;;;;;143725;584;46018;-64
2022/04/09 00:29:11;;;;;;;8.57;3.78;;;;;;;;;;143728;644;46022;-64
2022/04/09 00:31:38;;;;;;;6.18;3.42;;;;;;;;;;143725;571;47019;-63
2022/04/09 00:34:05;;;;;;;6.72;3.60;;;;;;;;;;143726;571;47012;-64
2022/04/09 00:36:33;;;;;;;8.90;3.70;;;;;;;;;;143725;569;46040;-64
2022/04/09 00:39:00;;;;;;;5.90;3.25;;;;;;;;;;143730;575;46021;-63
2022/04/09 00:41:27;;;;;;;5.87;3.20;;;;;;;;;;143726;573;47022;-64
2022/04/09 00:43:54;;;;;;;10.23;3.58;;;;;;;;;;143726;602;47012;-63
2022/04/09 00:46:21;;;;;;;9.45;3.70;;;;;;;;;;143727;600;46021;-63
2022/04/09 00:48:48;;;;;;;7.90;3.70;;;;;;;;;;143730;624;46020;-63
2022/04/09 00:51:15;;;;;;;8.48;4.05;;;;;;;;;;143724;631;47022;-65
2022/04/09 00:53:46;;;;;;;7.62;3.60;;;;;;;;;;143727;606;47012;-63
2022/04/09 00:56:16;;;;;;;7.97;3.00;;;;;;;;;;143728;570;46020;-63
2022/04/09 00:59:06;;;;;;;4.93;2.87;;;;;;;;;;143730;572;46020;-63
2022/04/09 01:01:38;;;;;;;8.48;3.50;;;;;;;;;;143727;572;47020;-63
2022/04/09 01:04:09;;;;;;;5.35;3.28;;;;;;;;;;143726;598;47012;-64
2022/04/09 01:06:37;;;;;;;7.55;3.65;;;;;;;;;;143729;580;46020;-64
2022/04/09 01:09:08;;;;;;;5.68;3.45;;;;;;;;;;143730;582;46021;-64
2022/04/09 01:11:35;;;;;;;7.85;3.90;;;;;;;;;;143727;574;47020;-62
2022/04/09 01:14:04;;;;;;;8.88;3.90;;;;;;;;;;143726;590;47013;-64
2022/04/09 01:16:31;;;;;;;9.05;3.78;;;;;;;;;;143729;587;46021;-64
2022/04/09 01:19:02;;;;;;;6.32;3.80;;;;;;;;;;143730;624;46020;-63
2022/04/09 01:21:29;;;;;;;7.60;3.97;;;;;;;;;;143725;679;47022;-64
2022/04/09 01:23:57;;;;;;;9.75;4.00;;;;;;;;;;143728;570;47012;-64
2022/04/09 01:26:24;;;;;;;8.63;4.20;;;;;;;;;;143730;585;46020;-64
2022/04/09 01:28:51;;;;;;;11.70;4.28;;;;;;;;;;143729;605;46020;-64
2022/04/09 01:31:18;;;;;;;9.23;4.47;;;;;;;;;;143727;697;47021;-64
2022/04/09 01:33:45;;;;;;;10.98;4.40;;;;;;;;;;143726;593;47012;-64
2022/04/09 01:36:14;;;;;;;7.60;4.15;;;;;;;;;;143729;696;46020;-64
2022/04/09 01:38:42;;;;;;;10.73;4.20;;;;;;;;;;143729;583;46021;-64
2022/04/09 01:41:09;;;;;;;7.32;3.00;;;;;;;;;;143724;571;48020;-62
2022/04/09 01:43:37;;;;;;;5.55;3.55;;;;;;;;;;143725;570;47012;-64
2022/04/09 01:46:04;;;;;;;8.35;3.17;;;;;;;;;;143727;585;46021;-64
2022/04/09 01:48:31;;;;;;;7.55;3.50;;;;;;;;;;143728;569;46020;-64
2022/04/09 01:50:58;;;;;;;8.07;4.00;;;;;;;;;;143723;566;47046;-64
2022/04/09 01:53:25;;;;;;;7.12;3.58;;;;;;;;;;143725;564;47012;-64
2022/04/09 01:55:52;;;;;;;6.05;2.72;;;;;;;;;;143723;625;46020;-64
2022/04/09 01:58:20;;;;;;;7.55;3.28;;;;;;;;;;143727;570;46020;-63
2022/04/09 02:00:47;;;;;;;7.18;3.40;;;;;;;;;;143722;584;47021;-62
2022/04/09 02:03:14;;;;;;;4.82;2.78;;;;;;;;;;143724;584;47012;-62
2022/04/09 02:05:41;;;;;;;12.52;4.00;;;;;;;;;;143726;625;46020;-64
2022/04/09 02:08:08;;;;;;;5.97;3.20;;;;;;;;;;143727;578;46021;-64
2022/04/09 02:10:37;;;;;;;9.63;3.55;;;;;;;;;;143726;672;47020;-62
2022/04/09 02:13:10;;;;;;;6.87;3.83;;;;;;;;;;143723;666;47012;-62
2022/04/09 02:15:37;;;;;;;10.27;4.85;;;;;;;;;;143725;567;46021;-63
2022/04/09 02:18:04;;;;;;;7.35;3.17;;;;;;;;;;143728;657;46020;-64
2022/04/09 02:20:33;;;;;;;11.77;4.20;;;;;;;;;;143725;569;47020;-62
2022/04/09 02:23:00;;;;;;;7.30;3.03;;;;;;;;;;143724;576;47012;-64
2022/04/09 02:25:26;;;;;;;7.43;3.12;;;;;;;;;;143726;644;46020;-64
2022/04/09 02:27:53;;;;;;;6.50;3.03;;;;;;;;;;143729;625;46020;-63
2022/04/09 02:30:20;;;;;;;9.23;3.45;;;;;;;;;;143725;565;48020;-63
2022/04/09 02:32:51;;;;;;;5.32;3.28;;;;;;;;;;143726;584;46020;-64
2022/04/09 02:35:25;;;;;;;7.00;3.45;;;;;;;;;;143726;614;46020;-63
2022/04/09 02:37:52;;;;;;;8.27;3.40;;;;;;;;;;143726;635;47012;-62
2022/04/09 02:40:20;;;;;;;6.90;3.10;;;;;;;;;;143725;569;47020;-63
2022/04/09 02:42:47;;;;;;;9.32;3.58;;;;;;;;;;143725;576;47012;-64
2022/04/09 02:45:14;;;;;;;7.25;3.40;;;;;;;;;;143725;653;46021;-62
2022/04/09 02:47:41;;;;;;;7.57;3.00;;;;;;;;;;143727;665;47012;-64
2022/04/09 02:50:09;;;;;;;6.68;3.25;;;;;;;;;;143725;665;47020;-62
2022/04/09 02:52:38;;;;;;;5.60;2.87;;;;;;;;;;143724;579;47012;-62
2022/04/09 02:55:05;;;;;;;10.23;3.75;;;;;;;;;;143727;617;46020;-62
2022/04/09 02:57:34;;;;;;;11.25;3.50;;;;;;;;;;143729;563;46020;-63
2022/04/09 03:00:02;;;;;;;8.35;3.40;;;;;;;;;;143725;592;47020;-64
2022/04/09 03:02:29;;;;;;;5.72;3.17;;;;;;;;;;143723;572;47012;-63
2022/04/09 03:04:56;;;;;;;8.35;3.78;;;;;;;;;;143726;601;46020;-64
2022/04/09 03:07:23;;;;;;;6.55;3.20;;;;;;;;;;143728;594;46021;-64
2022/04/09 03:09:50;;;;;;;7.55;3.30;;;;;;;;;;143724;591;47022;-64
2022/04/09 03:12:17;;;;;;;8.13;3.47;;;;;;;;;;143726;654;47012;-62
2022/04/09 03:14:47;;;;;;;5.85;3.00;;;;;;;;;;143727;565;46020;-63
2022/04/09 03:17:14;;;;;;;5.20;3.30;;;;;;;;;;143728;586;46020;-64
2022/04/09 03:19:41;;;;;;;4.90;2.92;;;;;;;;;;143724;596;47022;-63
2022/04/09 03:22:08;;;;;;;8.02;3.42;;;;;;;;;;143723;569;47012;-62
2022/04/09 03:24:35;;;;;;;6.22;3.37;;;;;;;;;;143727;571;46020;-63
2022/04/09 03:27:02;;;;;;;7.05;3.15;;;;;;;;;;143728;587;46020;-63
2022/04/09 03:29:29;;;;;;;7.97;3.50;;;;;;;;;;143726;570;47023;-63
2022/04/09 03:31:57;;;;;;;4.35;2.90;;;;;;;;;;143723;587;47012;-63
2022/04/09 03:34:24;;;;;;;7.78;3.00;;;;;;;;;;143727;569;46020;-63
2022/04/09 03:36:52;;;;;;;8.93;3.37;;;;;;;;;;143728;570;46021;-64
2022/04/09 03:39:19;;;;;;;7.60;3.15;;;;;;;;;;143725;650;47020;-64
2022/04/09 03:41:46;;;;;;;7.18;3.42;;;;;;;;;;143724;640;47012;-62
2022/04/09 03:44:13;;;;;;;7.32;3.50;;;;;;;;;;143726;569;46021;-63
2022/04/09 03:46:40;;;;;;;6.10;2.70;;;;;;;;;;143728;623;46020;-63
2022/04/09 03:49:07;;;;;;;6.53;2.95;;;;;;;;;;143725;595;47022;-64
2022/04/09 03:51:34;;;;;;;9.13;3.42;;;;;;;;;;143724;605;47013;-64
2022/04/09 03:54:01;;;;;;;7.57;3.50;;;;;;;;;;143725;675;46020;-63
2022/04/09 03:56:28;;;;;;;8.82;3.45;;;;;;;;;;143726;623;46022;-63
2022/04/09 03:58:55;;;;;;;9.38;3.65;;;;;;;;;;143723;594;47021;-62
2022/04/09 04:01:24;;;;;;;10.57;4.05;;;;;;;;;;143724;615;47012;-64
2022/04/09 04:03:52;;;;;;;8.88;3.70;;;;;;;;;;143728;633;46020;-64
2022/04/09 04:06:19;;;;;;;6.90;3.40;;;;;;;;;;143728;580;46020;-63
2022/04/09 04:08:46;;;;;;;8.23;3.42;;;;;;;;;;143724;585;47020;-62
2022/04/09 04:11:13;;;;;;;9.68;4.05;;;;;;;;;;143722;668;47012;-64
2022/04/09 04:13:40;;;;;;;8.18;3.72;;;;;;;;;;143726;635;46021;-64
2022/04/09 04:16:08;;;;;;;8.10;3.28;;;;;;;;;;143727;580;46020;-63
2022/04/09 04:18:36;;;;;;;11.63;4.05;;;;;;;;;;143723;579;47022;-63
2022/04/09 04:21:03;;;;;;;16.87;3.95;;;;;;;;;;143724;613;47012;-64
2022/04/09 04:23:31;;;;;;;6.82;3.65;;;;;;;;;;143724;582;46021;-64
2022/04/09 04:25:58;;;;;;;8.43;3.05;;;;;;;;;;143728;571;46020;-63
2022/04/09 04:28:25;;;;;;;7.03;3.40;;;;;;;;;;143727;586;46022;-63
2022/04/09 04:30:52;;;;;;;5.57;3.17;;;;;;;;;;143724;571;47012;-63
2022/04/09 04:33:19;;;;;;;8.05;3.80;;;;;;;;;;143725;641;46020;-63
2022/04/09 04:35:46;;;;;;;9.60;3.80;;;;;;;;;;143727;569;46020;-63
2022/04/09 04:38:13;;;;;;;11.63;4.03;;;;;;;;;;143724;659;47023;-63
2022/04/09 04:40:40;;;;;;;8.70;3.62;;;;;;;;;;143724;571;47012;-62
2022/04/09 04:43:07;;;;;;;7.85;3.17;;;;;;;;;;143726;625;46021;-63
2022/04/09 04:45:34;;;;;;;7.90;4.25;;;;;;;;;;143727;578;46020;-63
2022/04/09 04:48:01;;;;;;;8.07;3.40;;;;;;;;;;143724;591;47022;-63
2022/04/09 04:50:28;;;;;;;7.30;3.50;;;;;;;;;;143724;638;47013;-63
2022/04/09 04:52:56;;;;;;;8.10;3.67;;;;;;;;;;143727;564;46020;-63
2022/04/09 04:55:23;;;;;;;7.20;3.67;;;;;;;;;;143727;624;46020;-62
2022/04/09 04:57:51;;;;;;;13.43;4.82;;;;;;;;;;143726;662;46022;-62
2022/04/09 05:00:23;;;;;;;14.23;4.43;;;;;;;;;;143726;583;47012;-63
2022/04/09 05:02:51;;;;;;;11.68;4.32;;;;;;;;;;143726;585;46020;-63
2022/04/09 05:05:19;;;;;;;9.57;3.40;;;;;;;;;;143727;669;46020;-62
2022/04/09 05:07:47;;;;;;;5.20;3.42;;;;;;;;;;143725;624;47020;-63
2022/04/09 05:10:16;;;;;;;11.48;3.33;;;;;;;;;;143725;621;47012;-62
2022/04/09 05:12:44;;;;;;;9.65;3.53;;;;;;;;;;143724;573;46020;-63
2022/04/09 05:15:12;;;;;;;11.00;4.53;;;;;;;;;;143727;570;46021;-62
2022/04/09 05:17:39;;;;;;;6.82;3.28;;;;;;;;;;143727;572;46022;-62
2022/04/09 05:20:08;;;;;;;12.23;3.47;;;;;;;;;;143723;567;47030;-61
2022/04/09 05:22:43;;;;;;;5.22;3.15;;;;;;;;;;143725;570;46021;-63
2022/04/09 05:25:13;;;;;;;11.88;3.08;;;;;;;;;;143728;610;46020;-63
2022/04/09 05:27:41;;;;;;;6.75;3.65;;;;;;;;;;143724;593;47021;-62
2022/04/09 05:30:09;;;;;;;9.00;3.33;;;;;;;;;;143724;590;47012;-62
2022/04/09 05:32:36;;;;;;;10.95;3.40;;;;;;;;;;143723;572;46020;-63
2022/04/09 05:35:07;;;;;;;15.40;4.15;;;;;;;;;;143726;564;46021;-63
2022/04/09 05:37:34;;;;;;;7.32;3.22;;;;;;;;;;143725;618;47020;-62
2022/04/09 05:40:05;;;;;;;5.95;3.03;;;;;;;;;;143724;610;47012;-62
2022/04/09 05:42:32;;;;;;;9.68;3.17;;;;;;;;;;143727;573;46020;-62
2022/04/09 05:44:59;;;;;;;8.07;2.75;;;;;;;;;;143726;619;46020;-63
2022/04/09 05:47:27;;;;;;;7.15;3.47;;;;;;;;;;143725;572;47020;-63
2022/04/09 05:49:57;;;;;;;8.40;2.80;;;;;;;;;;143725;599;47012;-62
2022/04/09 05:52:24;;;;;;;6.35;2.85;;;;;;;;;;143726;627;46021;-63
2022/04/09 05:54:51;;;;;;;5.55;2.72;;;;;;;;;;143728;697;46020;-64
2022/04/09 05:57:18;;;;;;;9.00;3.28;;;;;;;;;;143724;571;47021;-63
2022/04/09 05:59:45;;;;;;;9.43;3.97;;;;;;;;;;143726;724;47012;-63
2022/04/09 06:02:13;;;;;;;8.65;3.53;;;;;;;;;;143725;841;46020;-63
2022/04/09 06:04:40;;;;;;;13.40;3.37;;;;;;;;;;143726;605;47010;-63
2022/04/09 06:07:07;;;;;;;5.78;2.62;;;;;;;;;;143725;595;47020;-63
2022/04/09 06:09:34;;;;;;;7.05;2.85;;;;;;;;;;143724;569;47012;-63
2022/04/09 06:12:01;;;;;;;7.37;3.12;;;;;;;;;;143726;613;46020;-63
2022/04/09 06:14:28;;;;;;;11.50;3.25;;;;;;;;;;143728;613;46021;-63
2022/04/09 06:16:56;;;;;;;8.05;2.92;;;;;;;;;;143724;564;47022;-62
2022/04/09 06:19:23;;;;;;;5.68;3.03;;;;;;;;;;143725;564;47013;-63
2022/04/09 06:21:50;;;;;;;3.87;2.20;;;;;;;;;;143724;564;46914;-63
2022/04/09 06:24:17;;;;;;;5.40;2.95;;;;;;;;;;143727;621;46020;-62
2022/04/09 06:26:43;;;;;;;6.97;2.50;;;;;;;;;;143725;607;47021;-63
2022/04/09 06:29:11;;;;;;;4.43;2.78;;;;;;;;;;143724;582;47012;-63
2022/04/09 06:31:38;;;;;;;4.47;2.15;;;;;;;;;;143727;564;46020;-64
2022/04/09 06:34:05;;;;;;;5.25;2.30;;;;;;;;;;143727;633;46020;-63
2022/04/09 06:36:32;;;;;;;4.22;2.12;;;;;;;;;;143723;649;48020;-63
2022/04/09 06:39:00;;;;;;;11.70;6.43;;;;;;;;;;143724;606;47012;-63
2022/04/09 06:41:28;;;;;;;10.00;4.53;;;;;;;;;;143727;572;46020;-63
2022/04/09 06:43:55;;;;;;;9.40;4.07;;;;;;;;;;143727;571;46021;-63
2022/04/09 06:46:22;;;;;;;11.68;5.05;;;;;;;;;;143724;654;47044;-63
2022/04/09 06:48:49;;;;;;;17.52;4.90;;;;;;;;;;143723;606;47013;-63
2022/04/09 06:51:16;;;;;;;6.97;4.53;;;;;;;;;;143725;586;46021;-63
2022/04/09 06:53:43;;;;;;;11.60;5.30;;;;;;;;;;143728;595;46020;-63
2022/04/09 06:56:10;;;;;;;11.93;7.40;;;;;;;;;;143724;588;47022;-63
2022/04/09 06:58:37;;;;;;;14.48;6.22;;;;;;;;;;143722;611;47012;-63
2022/04/09 07:01:04;;;;;;;7.32;4.35;;;;;;;;;;143727;617;46020;-62
2022/04/09 07:03:31;;;;;;;17.20;8.95;;;;;;;;;;143727;593;46020;-62
2022/04/09 07:06:01;;;;;;;11.63;6.03;;;;;;;;;;143724;566;47038;-62
2022/04/09 07:08:28;;;;;;;9.90;4.87;;;;;;;;;;143724;635;47012;-61
2022/04/09 07:10:56;;;;;;;14.07;6.12;;;;;;;;;;143726;607;46020;-62
2022/04/09 07:13:22;;;;;;;12.70;7.50;;;;;;;;;;143728;605;46021;-61
2022/04/09 07:15:49;;;;;;;15.18;9.57;;;;;;;;;;143729;589;47018;-62
2022/04/09 07:18:16;;;;;;;14.05;8.93;;;;;;;;;;143725;634;47012;-61
2022/04/09 07:20:44;;;;;;;15.80;7.20;;;;;;;;;;143727;605;46019;-62
2022/04/09 07:23:11;;;;;;;23.75;7.28;;;;;;;;;;143727;608;46022;-62
2022/04/09 07:25:38;;;;;;;12.25;5.53;;;;;;;;;;143724;586;47020;-62
2022/04/09 07:28:05;;;;;;;23.35;4.68;;;;;;;;;;143726;575;46022;-61
2022/04/09 07:30:32;;;;;;;11.55;6.40;;;;;;;;;;143726;631;46018;-62
2022/04/09 07:32:59;;;;;;;9.95;5.60;;;;;;;;;;143727;588;46022;-62
2022/04/09 07:35:27;;;;;;;14.43;7.47;;;;;;;;;;143726;586;47019;-62
2022/04/09 07:37:55;;;;;;;10.98;4.43;;;;;;;;;;143726;593;47012;-61
2022/04/09 07:40:29;;;;;;;17.37;5.47;;;;;;;;;;143726;567;46018;-61
2022/04/09 07:42:58;;;;;;;9.85;4.62;;;;;;;;;;143728;595;46023;-61
2022/04/09 07:45:26;;;;;;;8.63;5.15;;;;;;;;;;143723;622;47027;-62
2022/04/09 07:47:59;;;;;;;9.02;4.78;;;;;;;;;;143724;598;47012;-62
2022/04/09 07:50:28;;;;;;;9.95;4.68;;;;;;;;;;143724;604;46019;-62
2022/04/09 07:52:55;;;;;;;8.07;4.80;;;;;;;;;;143729;608;46022;-62
2022/04/09 07:55:23;;;;;;;10.85;5.28;;;;;;;;;;143724;617;48018;-62
2022/04/09 07:57:51;;;;;;;9.35;4.05;;;;;;;;;;143723;591;47013;-62
2022/04/09 08:00:20;;;;;;;12.00;3.97;;;;;;;;;;143728;617;46018;-62
2022/04/09 08:02:47;;;;;;;10.85;4.03;;;;;;;;;;143730;591;46022;-62
2022/04/09 08:05:15;;;;;;;16.65;4.18;;;;;;;;;;143725;583;47046;-61
2022/04/09 08:07:42;;;;;;;10.52;4.35;;;;;;;;;;143727;573;47012;-62
2022/04/09 08:10:11;;;;;;;6.90;3.85;;;;;;;;;;143727;569;46018;-62
2022/04/09 08:12:39;;;;;;;10.30;3.97;;;;;;;;;;143729;598;46023;-62
2022/04/09 08:15:07;;;;;;;10.48;4.68;;;;;;;;;;143730;595;46020;-62
2022/04/09 08:17:36;;;;;;;9.18;3.95;;;;;;;;;;143725;569;47012;-62
2022/04/09 08:20:03;;;;;;;8.00;3.62;;;;;;;;;;143726;584;46018;-62
2022/04/09 08:22:31;;;;;;;5.45;3.05;;;;;;;;;;143728;730;46022;-62
2022/04/09 08:24:58;;;;;;;8.73;4.22;;;;;;;;;;143725;631;47020;-63
2022/04/09 08:27:25;;;;;;;5.70;3.30;;;;;;;;;;143724;564;47013;-63
2022/04/09 08:29:52;;;;;;;8.13;4.45;;;;;;;;;;143726;610;46018;-64
2022/04/09 08:32:19;;;;;;;8.65;3.10;;;;;;;;;;143728;565;46022;-63
2022/04/09 08:34:46;;;;;;;5.20;3.22;;;;;;;;;;143723;713;47043;-63
2022/04/09 08:37:13;;;;;;;5.57;2.87;;;;;;;;;;143723;711;47012;-63
2022/04/09 08:39:40;;;;;;;12.20;4.85;;;;;;;;;;143727;591;46020;-63
2022/04/09 08:42:07;;;;;;;7.53;2.90;;;;;;;;;;143729;565;46021;-63
2022/04/09 08:44:34;;;;;;;7.20;2.85;;;;;;;;;;143724;605;48020;-63
2022/04/09 08:47:01;;;;;;;6.95;3.87;;;;;;;;;;143727;643;46032;-64
2022/04/09 08:49:33;;;;;;;7.30;2.92;;;;;;;;;;143728;581;46021;-63
2022/04/09 08:52:00;;;;;;;5.37;3.35;;;;;;;;;;143729;594;46020;-64
2022/04/09 08:54:29;;;;;;;6.22;3.58;;;;;;;;;;143725;585;47020;-64
2022/04/09 08:56:56;;;;;;;5.32;3.12;;;;;;;;;;143725;602;47013;-64
2022/04/09 08:59:26;;;;;;;7.03;3.20;;;;;;;;;;143726;595;46020;-64
2022/04/09 09:01:53;;;;;;;9.18;4.10;;;;;;;;;;143728;569;46020;-64
2022/04/09 09:04:20;;;;;;;8.05;3.90;;;;;;;;;;143725;569;47021;-63
2022/04/09 09:06:47;;;;;;;5.43;2.53;;;;;;;;;;143724;657;47012;-63
2022/04/09 09:09:36;;;;;;;11.18;2.80;;;;;;;;;;143729;570;46020;-64
2022/04/09 09:12:06;;;;;;;9.85;2.80;;;;;;;;;;143728;569;46020;-65
2022/04/09 09:14:36;;;;;;;4.70;2.42;;;;;;;;;;143724;625;47020;-64
2022/04/09 09:17:04;;;;;;;5.25;1.92;;;;;;;;;;143724;691;47012;-65
2022/04/09 09:19:47;;;;;;;5.90;2.30;;;;;;;;;;143727;579;46020;-64
2022/04/09 09:22:15;;;;;;;8.37;2.77;;;;;;;;;;143728;658;47012;-63
2022/04/09 09:24:42;;;;;;;5.45;2.45;;;;;;;;;;143726;563;47020;-63
2022/04/09 09:27:10;;;;;;;5.93;2.75;;;;;;;;;;143724;621;47012;-64
2022/04/09 09:29:39;;;;;;;5.32;2.15;;;;;;;;;;143729;686;46020;-64
2022/04/09 09:32:07;;;;;;;6.65;2.55;;;;;;;;;;143728;564;46020;-63
2022/04/09 09:34:34;;;;;;;4.00;2.05;;;;;;;;;;143726;601;47028;-64
2022/04/09 09:37:01;;;;;;;4.85;2.40;;;;;;;;;;143726;605;47012;-64
2022/04/09 09:39:28;;;;;;;6.18;2.55;;;;;;;;;;143729;636;46020;-64
2022/04/09 09:42:01;;;;;;;5.22;2.25;;;;;;;;;;143729;575;46021;-64
2022/04/09 09:44:34;;;;;;;6.78;2.47;;;;;;;;;;143725;578;47022;-64
2022/04/09 09:47:09;;;;;;;9.77;2.78;;;;;;;;;;143727;618;47012;-65
2022/04/09 09:49:58;;;;;;;5.97;3.58;;;;;;;;;;143727;569;46021;-65
2022/04/09 09:52:30;;;;;;;5.03;2.33;;;;;;;;;;143730;564;46020;-64
2022/04/09 09:55:13;;;;;;;11.63;6.35;;;;;;;;;;143727;571;47021;-64
2022/04/09 09:57:41;;;;;;;13.02;6.90;;;;;;;;;;143727;662;47012;-64
2022/04/09 10:00:11;;;;;;;10.40;5.80;;;;;;;;;;143729;577;46020;-64
2022/04/09 10:02:41;;;;;;;8.77;4.72;;;;;;;;;;143731;582;46020;-64
2022/04/09 10:05:08;;;;;;;18.12;9.65;;;;;;;;;;143727;599;47020;-64
2022/04/09 10:07:36;;;;;;;17.55;7.87;;;;;;;;;;143725;565;47012;-64
2022/04/09 10:10:05;;;;;;;12.65;7.10;;;;;;;;;;143727;571;46020;-65
2022/04/09 10:12:41;;;;;;;8.82;5.10;;;;;;;;;;143726;614;47013;-64
2022/04/09 10:15:09;;;;;;;10.00;5.12;;;;;;;;;;143726;571;47022;-65
2022/04/09 10:17:38;;;;;;;11.00;4.60;;;;;;;;;;143726;608;47013;-65
2022/04/09 10:20:06;;;;;;;21.45;6.40;;;;;;;;;;143727;604;46021;-64
2022/04/09 10:22:40;;;;;;;9.30;4.68;;;;;;;;;;143729;632;46020;-64
2022/04/09 10:25:08;;;;;;;12.65;5.55;;;;;;;;;;143729;577;46033;-65
2022/04/09 10:27:43;;;;;;;12.82;5.57;;;;;;;;;;143727;569;47012;-65
2022/04/09 10:30:29;;;;;;;8.63;2.70;;;;;;;;;;143729;566;46020;-65
2022/04/09 10:32:59;;;;;;;8.25;3.70;;;;;;;;;;143730;582;46020;-64
2022/04/09 10:35:38;;;;;;;7.35;4.25;;;;;;;;;;143726;582;47020;-65
2022/04/09 10:38:23;;;;;;;5.43;2.87;;;;;;;;;;143726;580;47012;-64
2022/04/09 10:41:30;;;;;;;5.75;2.67;;;;;;;;;;143725;588;46021;-65
2022/04/09 10:43:59;;;;;;;6.15;3.08;;;;;;;;;;143728;608;47033;-65
2022/04/09 10:46:35;;;;;;;5.78;2.60;;;;;;;;;;143726;611;47029;-65
2022/04/09 10:49:25;;;;;;;6.82;2.62;;;;;;;;;;143727;592;47012;-65
2022/04/09 10:52:03;;;;;;;6.68;3.03;;;;;;;;;;143727;566;46020;-64
2022/04/09 10:54:30;;;;;;;5.47;2.72;;;;;;;;;;143731;575;46020;-65
2022/04/09 10:57:07;;;;;;;5.22;2.97;;;;;;;;;;143726;634;47020;-65
2022/04/09 10:59:34;;;;;;;3.35;2.10;;;;;;;;;;143726;613;47012;-66
2022/04/09 11:02:03;;;;;;;6.45;2.50;;;;;;;;;;143724;615;46021;-66
2022/04/09 11:04:39;;;;;;;7.60;3.50;;;;;;;;;;143729;636;47012;-66
2022/04/09 11:07:24;;;;;;;6.00;2.55;;;;;;;;;;143724;610;48020;-65
2022/04/09 11:10:00;;;;;;;8.10;2.70;;;;;;;;;;143725;635;47012;-66
2022/04/09 11:12:45;;;;;;;8.90;2.95;;;;;;;;;;143730;691;46021;-65
2022/04/09 11:15:16;;;;;;;4.93;2.05;;;;;;;;;;143729;731;46020;-65
2022/04/09 11:17:45;;;;;;;5.10;1.95;;;;;;;;;;143728;702;47022;-65
2022/04/09 11:20:20;;;;;;;5.53;2.33;;;;;;;;;;143726;643;47012;-65
2022/04/09 11:22:52;;;;;;;5.22;2.42;;;;;;;;;;143728;609;46020;-65
2022/04/09 11:25:30;;;;;;;3.12;1.33;;;;;;;;;;143730;564;46021;-64
2022/04/09 11:28:13;;;;;;;6.62;2.08;;;;;;;;;;143727;601;47020;-65
2022/04/09 11:31:02;;;;;;;8.70;1.73;;;;;;;;;;143726;660;47012;-64
2022/04/09 11:33:30;;;;;;;5.22;1.73;;;;;;;;;;143728;622;46021;-66
2022/04/09 11:36:00;;;;;;;5.00;1.65;;;;;;;;;;143728;653;46020;-65
2022/04/09 11:38:28;;;;;;;2.75;1.45;;;;;;;;;;143725;616;47022;-65
2022/04/09 11:40:56;;;;;;;2.72;1.52;;;;;;;;;;143727;585;47012;-65
2022/04/09 11:43:24;;;;;;;12.48;2.42;;;;;;;;;;143729;595;46020;-65
2022/04/09 11:45:51;;;;;;;6.15;1.60;;;;;;;;;;143730;591;46020;-64
2022/04/09 11:48:20;;;;;;;4.25;1.90;;;;;;;;;;143727;655;47021;-63
2022/04/09 11:50:48;;;;;;;2.80;1.67;;;;;;;;;;143724;587;47012;-64
2022/04/09 11:53:21;;;;;;;5.15;1.67;;;;;;;;;;143726;563;46020;-63
2022/04/09 11:55:49;;;;;;;4.82;1.52;;;;;;;;;;143730;654;46021;-63
2022/04/09 11:58:19;;;;;;;8.73;1.80;;;;;;;;;;143727;590;47023;-64
2022/04/09 12:00:46;;;;;;;5.37;1.62;;;;;;;;;;143726;599;47012;-64
2022/04/09 12:03:14;;;;;;;2.65;1.42;;;;;;;;;;143726;573;47012;-65
2022/04/09 12:05:46;;;;;;;3.22;1.85;;;;;;;;;;143731;626;46020;-64
2022/04/09 12:08:23;;;;;;;5.62;2.05;;;;;;;;;;143726;582;47020;-63
2022/04/09 12:10:58;;;;;;;3.22;1.75;;;;;;;;;;143730;583;46013;-63
2022/04/09 12:13:27;;;;;;;3.33;1.37;;;;;;;;;;143729;590;46020;-65
2022/04/09 12:15:54;;;;;;;6.28;2.28;;;;;;;;;;143728;580;46020;-65
2022/04/09 12:18:31;;;;;;;6.57;1.98;;;;;;;;;;143727;654;47020;-64
2022/04/09 12:21:04;;;;;;;6.22;2.05;;;;;;;;;;143728;579;47012;-64
2022/04/09 12:23:33;;;;;;;3.07;1.60;;;;;;;;;;143729;604;46020;-65
2022/04/09 12:26:01;;;;;;;6.15;2.87;;;;;;;;;;143728;569;46021;-65
2022/04/09 12:28:32;;;;;;;3.78;1.35;;;;;;;;;;143726;603;47022;-64
2022/04/09 12:31:00;;;;;;;4.68;1.60;;;;;;;;;;143725;590;47013;-64
2022/04/09 12:33:28;;;;;;;2.95;1.30;;;;;;;;;;143731;609;46021;-65
2022/04/09 12:36:07;;;;;;;2.47;1.23;;;;;;;;;;143731;585;46020;-64
2022/04/09 12:38:41;;;;;;;6.50;2.72;;;;;;;;;;143723;578;47021;-65
2022/04/09 12:41:09;;;;;;;8.23;4.10;;;;;;;;;;143726;595;47023;-65
2022/04/09 12:43:39;;;;;;;9.55;3.85;;;;;;;;;;143727;591;47014;-64
2022/04/09 12:46:09;;;;;;;7.47;3.80;;;;;;;;;;143731;572;46020;-65
2022/04/09 12:48:45;;;;;;;10.27;4.00;;;;;;;;;;143727;632;47020;-65
2022/04/09 12:51:13;;;;;;;6.32;3.33;;;;;;;;;;143727;582;47012;-63
2022/04/09 12:53:42;;;;;;;5.43;2.67;;;;;;;;;;143730;625;46020;-63
2022/04/09 12:56:14;;;;;;;8.00;2.78;;;;;;;;;;143729;589;46021;-63
2022/04/09 12:58:42;;;;;;;4.97;2.67;;;;;;;;;;143726;598;47020;-63
2022/04/09 13:01:10;;;;;;;6.25;2.85;;;;;;;;;;143726;620;47013;-64
2022/04/09 13:03:37;;;;;;;10.18;3.40;;;;;;;;;;143728;571;46021;-64
2022/04/09 13:06:06;;;;;;;7.57;3.22;;;;;;;;;;143729;567;46020;-64
2022/04/09 13:08:33;;;;;;;10.55;3.55;;;;;;;;;;143726;581;48021;-62
2022/04/09 13:11:01;;;;;;;4.55;2.65;;;;;;;;;;143726;603;47012;-64
2022/04/09 13:13:28;;;;;;;6.75;3.50;;;;;;;;;;143729;676;46020;-64
2022/04/09 13:15:55;;;;;;;6.10;2.40;;;;;;;;;;143729;583;46020;-64
2022/04/09 13:18:23;;;;;;;5.40;2.70;;;;;;;;;;143723;604;48020;-63
2022/04/09 13:20:50;;;;;;;5.18;3.08;;;;;;;;;;143726;582;47012;-64
2022/04/09 13:23:17;;;;;;;6.15;3.70;;;;;;;;;;143729;671;46020;-64
2022/04/09 13:25:44;;;;;;;7.40;3.40;;;;;;;;;;143728;699;46021;-63
2022/04/09 13:28:13;;;;;;;7.37;3.05;;;;;;;;;;143727;601;47022;-63
2022/04/09 13:30:41;;;;;;;5.75;3.22;;;;;;;;;;143727;600;47012;-62
2022/04/09 13:33:08;;;;;;;5.57;3.05;;;;;;;;;;143730;586;46021;-63
2022/04/09 13:35:35;;;;;;;6.85;3.08;;;;;;;;;;143729;576;46020;-64
2022/04/09 13:38:03;;;;;;;5.20;2.28;;;;;;;;;;143726;574;47028;-63
2022/04/09 13:40:30;;;;;;;16.67;3.12;;;;;;;;;;143724;583;47013;-64
2022/04/09 13:42:57;;;;;;;6.95;3.12;;;;;;;;;;143727;564;46020;-64
2022/04/09 13:45:24;;;;;;;11.20;3.72;;;;;;;;;;143732;573;46019;-63
2022/04/09 13:47:52;;;;;;;7.90;3.65;;;;;;;;;;143727;564;47021;-63
2022/04/09 13:50:20;;;;;;;5.35;2.90;;;;;;;;;;143728;581;47012;-63
2022/04/09 13:52:47;;;;;;;3.85;2.35;;;;;;;;;;143729;604;46020;-62
2022/04/09 13:55:14;;;;;;;8.48;3.72;;;;;;;;;;143730;586;47024;-63
2022/04/09 13:57:41;;;;;;;9.00;3.40;;;;;;;;;;143724;577;47022;-64
2022/04/09 14:00:08;;;;;;;8.13;4.22;;;;;;;;;;143728;576;47012;-64
2022/04/09 14:02:35;;;;;;;4.55;2.67;;;;;;;;;;143727;613;46021;-62
2022/04/09 14:05:04;;;;;;;7.75;3.12;;;;;;;;;;143731;564;46020;-63
2022/04/09 14:07:32;;;;;;;6.45;3.50;;;;;;;;;;143727;569;47028;-64
2022/04/09 14:10:00;;;;;;;6.43;3.65;;;;;;;;;;143722;585;47012;-64
2022/04/09 14:12:29;;;;;;;5.15;2.67;;;;;;;;;;143728;603;46020;-64
2022/04/09 14:14:56;;;;;;;6.53;3.20;;;;;;;;;;143728;700;46020;-63
2022/04/09 14:17:23;;;;;;;6.43;3.25;;;;;;;;;;143725;577;47021;-62
2022/04/09 14:19:51;;;;;;;7.72;3.70;;;;;;;;;;143725;699;47034;-64
2022/04/09 14:22:18;;;;;;;5.97;3.45;;;;;;;;;;143728;650;46020;-63
2022/04/09 14:24:44;;;;;;;4.97;3.28;;;;;;;;;;143728;565;46020;-64
2022/04/09 14:27:11;;;;;;;5.25;2.83;;;;;;;;;;143720;577;47022;-64
2022/04/09 14:29:38;;;;;;;6.40;3.20;;;;;;;;;;143723;631;47012;-64
2022/04/09 14:32:07;;;;;;;5.05;2.97;;;;;;;;;;143728;656;46020;-64
2022/04/09 14:34:34;;;;;;;3.90;2.70;;;;;;;;;;143728;697;46020;-63
2022/04/09 14:37:01;;;;;;;6.07;3.00;;;;;;;;;;143725;639;47022;-62
2022/04/09 14:39:28;;;;;;;6.87;3.15;;;;;;;;;;143726;606;47012;-64
2022/04/09 14:41:55;;;;;;;6.87;3.50;;;;;;;;;;143727;648;46020;-64
2022/04/09 14:44:23;;;;;;;7.57;3.47;;;;;;;;;;143728;607;46020;-63
2022/04/09 14:46:50;;;;;;;6.25;2.85;;;;;;;;;;143724;576;47021;-63
2022/04/09 14:49:17;;;;;;;4.78;3.03;;;;;;;;;;143724;586;47012;-64
2022/04/09 14:51:44;;;;;;;7.07;3.85;;;;;;;;;;143727;577;46020;-64